Time;durP1;ratioP1;P1;durP2;ratioP2;P2;SDS_P1;SDS_P2;PMS_P1;PMS_P2;Temp;Humidity;BMP_temperature;BMP_pressure;BME280_temperature;BME280_humidity;BME280_pressure;Samples;Min_cycle;Max_cycle;Signal;HPM_P1;HPM_P2
2023/08/11 00:01:16;;;;;;;4.03;2.97;;;;;;;30.65;59.14;100818.88;5053806;28;66540;-40
2023/08/11 00:03:47;;;;;;;4.18;2.90;;;;;;;30.68;59.76;100823.84;5057141;28;70174;-41
2023/08/11 00:06:18;;;;;;;7.05;2.78;;;;;;;30.60;59.47;100805.16;5057845;28;66436;-39
2023/08/11 00:08:49;;;;;;;20.10;8.55;;;;;;;30.79;62.73;100824.19;5058180;28;70234;-40
2023/08/11 00:11:20;;;;;;;28.60;9.45;;;;;;;30.84;66.86;100827.06;5059602;28;67025;-39
2023/08/11 00:13:50;;;;;;;30.10;9.90;;;;;;;30.82;65.91;100823.78;5054030;28;71650;-39
2023/08/11 00:16:21;;;;;;;40.08;11.70;;;;;;;30.93;66.53;100837.41;5053309;28;66547;-39
2023/08/11 00:18:52;;;;;;;45.63;15.50;;;;;;;30.92;68.23;100835.78;5058751;28;70086;-38
2023/08/11 00:21:23;;;;;;;155.43;60.10;;;;;;;30.99;70.25;100838.41;5059483;28;65808;-38
2023/08/11 00:23:54;;;;;;;189.55;73.93;;;;;;;31.01;70.09;100833.59;5057165;28;69391;-40
2023/08/11 00:26:25;;;;;;;182.03;72.70;;;;;;;31.05;70.22;100837.50;5055813;28;65598;-40
2023/08/11 00:28:56;;;;;;;158.77;68.82;;;;;;;31.11;72.75;100847.44;5056343;28;70520;-42
2023/08/11 00:31:28;;;;;;;142.60;62.20;;;;;;;31.12;73.02;100846.41;5056306;28;65192;-40
2023/08/11 00:33:59;;;;;;;133.95;57.55;;;;;;;31.03;71.64;100817.13;5056898;28;69583;-38
2023/08/11 00:36:29;;;;;;;148.23;57.78;;;;;;;31.22;73.28;100856.72;5054568;27;66643;-39
2023/08/11 00:39:00;;;;;;;126.18;52.97;;;;;;;31.19;71.05;100850.94;5059866;28;69790;-39
2023/08/11 00:41:32;;;;;;;118.63;48.72;;;;;;;31.31;72.77;100866.22;5055089;28;66115;-39
2023/08/11 00:44:03;;;;;;;;;;;;;;;31.04;75.05;100867.56;5056492;28;68869;-40
2023/08/11 00:46:34;;;;;;;107.68;41.72;;;;;;;31.33;70.90;100874.97;5055209;28;66380;-37
2023/08/11 00:49:05;;;;;;;95.45;37.70;;;;;;;31.42;69.26;100878.25;5053140;28;70049;-40
2023/08/11 00:51:38;;;;;;;93.30;34.70;;;;;;;31.47;68.40;100897.38;5047249;28;43008;-42
2023/08/11 00:54:11;;;;;;;89.18;32.15;;;;;;;31.50;67.52;100896.94;5057827;28;69979;-39
2023/08/11 00:56:44;;;;;;;88.75;32.50;;;;;;;31.54;67.21;100898.16;5045806;28;65105;-39
2023/08/11 00:59:16;;;;;;;78.95;30.33;;;;;;;31.47;67.15;100886.53;5056036;28;69846;-39
2023/08/11 01:01:47;;;;;;;83.90;27.85;;;;;;;31.53;66.53;100893.78;5057601;28;65348;-41
2023/08/11 01:04:18;;;;;;;76.38;28.52;;;;;;;31.61;66.66;100903.50;5053133;28;71599;-40
2023/08/11 01:07:06;;;;;;;53.67;23.52;;;;;;;31.65;66.47;100898.44;5057302;28;65764;-40
2023/08/11 01:09:47;;;;;;;67.97;24.63;;;;;;;31.66;66.57;100895.53;5054296;28;69983;-41
2023/08/11 01:12:33;;;;;;;56.05;24.42;;;;;;;31.68;66.41;100898.00;5050231;28;66680;-39
2023/08/11 01:15:15;;;;;;;57.47;23.13;;;;;;;31.58;66.26;100890.41;5050047;28;70016;-41
2023/08/11 01:17:48;;;;;;;;;;;;;;;31.32;67.26;100910.44;5056115;28;66037;-40
2023/08/11 01:20:20;;;;;;;53.30;19.58;;;;;;;31.69;66.34;100905.09;5056773;28;70286;-41
2023/08/11 01:22:56;;;;;;;49.88;18.65;;;;;;;31.76;66.17;100916.69;5051805;28;66630;-42
2023/08/11 01:25:29;;;;;;;43.30;19.02;;;;;;;31.27;66.03;100815.44;5042824;28;70471;-41
2023/08/11 01:28:02;;;;;;;40.83;17.10;;;;;;;31.81;66.07;100903.28;5051766;28;65980;-40
2023/08/11 01:30:35;;;;;;;41.53;18.10;;;;;;;31.82;65.94;100907.66;5055602;28;70471;-42
2023/08/11 01:33:06;;;;;;;39.22;16.98;;;;;;;31.80;65.96;100904.34;5053551;28;65607;-40
2023/08/11 01:35:37;;;;;;;35.78;15.48;;;;;;;31.85;65.81;100923.50;5052865;28;69186;-40
2023/08/11 01:38:11;;;;;;;34.53;15.60;;;;;;;31.89;65.58;100911.13;5041687;28;65933;-39
2023/08/11 01:40:41;;;;;;;31.10;15.23;;;;;;;31.53;65.50;100850.38;5050329;28;71094;-39
2023/08/11 01:43:15;;;;;;;28.50;13.70;;;;;;;31.76;65.37;100882.28;5049036;28;66028;-41
2023/08/11 01:45:48;;;;;;;28.95;12.75;;;;;;;31.94;65.52;100911.31;5054049;28;69890;-40
2023/08/11 01:48:20;;;;;;;32.10;13.25;;;;;;;31.54;65.29;100837.69;5055158;28;65640;-41
2023/08/11 01:50:52;;;;;;;22.27;12.45;;;;;;;31.98;65.07;100909.81;5054590;28;69689;-40
2023/08/11 01:53:23;;;;;;;19.70;10.57;;;;;;;31.98;65.31;100903.53;5057125;28;66238;-42
2023/08/11 01:55:54;;;;;;;24.00;12.00;;;;;;;31.91;65.55;100892.78;5057903;28;68915;-39
2023/08/11 01:58:26;;;;;;;19.48;10.05;;;;;;;31.97;65.02;100900.00;5047317;28;66187;-40
2023/08/11 02:00:56;;;;;;;24.05;10.35;;;;;;;32.00;65.18;100902.25;5056328;28;70132;-40
2023/08/11 02:03:27;;;;;;;20.30;10.32;;;;;;;32.07;65.41;100895.91;5054994;28;66642;-39
2023/08/11 02:05:58;;;;;;;16.50;9.63;;;;;;;31.92;64.99;100888.97;5055501;28;69335;-40
2023/08/11 02:08:29;;;;;;;21.40;10.15;;;;;;;32.10;65.09;100920.72;5056444;28;66593;-43
2023/08/11 02:11:00;;;;;;;18.10;9.30;;;;;;;32.07;64.96;100910.31;5059754;28;70108;-40
2023/08/11 02:13:31;;;;;;;14.65;8.68;;;;;;;32.18;64.93;100911.41;5059460;28;66225;-40
2023/08/11 02:16:03;;;;;;;13.05;8.25;;;;;;;32.18;65.13;100924.97;5058114;28;70890;-40
2023/08/11 02:18:34;;;;;;;11.70;7.25;;;;;;;32.19;65.00;100921.22;5054486;28;65810;-40
2023/08/11 02:21:07;;;;;;;13.07;7.50;;;;;;;32.15;64.83;100909.16;5053253;28;70428;-41
2023/08/11 02:23:38;;;;;;;12.77;7.10;;;;;;;32.21;64.80;100909.09;5042218;28;65809;-42
2023/08/11 02:26:09;;;;;;;15.68;7.82;;;;;;;32.26;64.57;100911.09;5058409;28;69514;-40
2023/08/11 02:28:42;;;;;;;9.85;6.65;;;;;;;32.30;64.58;100914.22;5060025;28;65848;-40
2023/08/11 02:31:13;;;;;;;9.82;6.53;;;;;;;32.30;64.64;100896.03;5059126;28;70791;-40
2023/08/11 02:33:44;;;;;;;8.67;6.43;;;;;;;32.33;64.75;100895.56;5044646;28;66477;-40
2023/08/11 02:36:15;;;;;;;9.10;6.67;;;;;;;32.34;64.73;100896.38;5054833;28;70931;-40
2023/08/11 02:38:46;;;;;;;;;;;;;;;32.01;65.83;100903.91;5042611;28;65735;-41
2023/08/11 02:41:18;;;;;;;12.93;7.10;;;;;;;32.37;64.63;100887.78;5055014;28;69304;-40
2023/08/11 02:43:49;;;;;;;7.88;6.70;;;;;;;32.41;64.51;100891.72;5056821;28;66491;-39
2023/08/11 02:46:19;;;;;;;10.55;6.03;;;;;;;32.45;64.34;100882.84;5057469;28;70202;-40
2023/08/11 02:48:51;;;;;;;7.38;5.65;;;;;;;32.44;64.44;100880.38;5057105;28;66779;-41
2023/08/11 02:51:21;;;;;;;9.48;5.85;;;;;;;32.47;64.35;100875.34;5052660;28;70266;-40
2023/08/11 02:53:52;;;;;;;8.88;5.90;;;;;;;32.53;63.98;100878.19;5056331;28;66476;-40
2023/08/11 02:56:23;;;;;;;7.18;5.15;;;;;;;32.54;64.28;100877.13;5052164;28;70014;-41
2023/08/11 02:58:58;;;;;;;9.13;5.90;;;;;;;32.54;64.13;100864.41;5052912;28;66833;-41
2023/08/11 03:01:29;;;;;;;8.55;5.68;;;;;;;32.60;64.12;100868.91;5058353;28;70290;-42
2023/08/11 03:04:00;;;;;;;9.70;4.90;;;;;;;32.61;64.17;100862.38;5050118;28;65563;-41
2023/08/11 03:06:32;;;;;;;7.20;4.90;;;;;;;32.64;64.10;100853.78;5051039;28;70534;-43
2023/08/11 03:09:03;;;;;;;9.23;4.90;;;;;;;32.66;63.97;100850.84;5059909;28;67396;-41
2023/08/11 03:11:34;;;;;;;9.70;5.10;;;;;;;32.66;63.99;100850.84;5056107;28;69692;-40
2023/08/11 03:14:05;;;;;;;6.45;4.60;;;;;;;32.70;63.86;100855.56;5056506;28;66525;-40
2023/08/11 03:16:36;;;;;;;5.93;4.00;;;;;;;32.66;63.95;100835.38;5058062;28;70747;-41
2023/08/11 03:19:07;;;;;;;10.25;4.82;;;;;;;32.77;63.88;100839.16;5052852;28;66107;-41
2023/08/11 03:21:37;;;;;;;7.95;4.93;;;;;;;32.78;63.92;100846.25;5054764;28;70609;-41
2023/08/11 03:24:09;;;;;;;5.50;4.25;;;;;;;32.76;63.83;100837.50;5057646;28;66099;-42
2023/08/11 03:26:43;;;;;;;6.47;4.15;;;;;;;32.43;63.58;100765.53;5054404;28;70573;-41
2023/08/11 03:29:14;;;;;;;5.30;4.47;;;;;;;32.84;63.65;100839.88;5047301;28;66065;-42
2023/08/11 03:31:46;;;;;;;8.45;3.95;;;;;;;32.87;63.56;100825.81;5059685;28;69666;-40
2023/08/11 03:34:19;;;;;;;5.82;3.70;;;;;;;32.91;63.71;100824.28;5054468;28;65564;-43
2023/08/11 03:36:50;;;;;;;6.45;3.63;;;;;;;32.93;63.43;100819.44;5052831;28;69959;-40
2023/08/11 03:39:21;;;;;;;4.97;3.92;;;;;;;32.94;63.51;100812.13;5056309;28;66512;-43
2023/08/11 03:41:52;;;;;;;3.95;3.55;;;;;;;32.92;63.56;100815.06;5058688;28;70486;-41
2023/08/11 03:44:24;;;;;;;9.48;3.72;;;;;;;32.99;63.38;100808.69;5053891;28;66410;-40
2023/08/11 03:46:55;;;;;;;5.60;4.20;;;;;;;32.98;63.71;100809.75;5052797;28;69966;-41
2023/08/11 03:49:27;;;;;;;7.18;3.42;;;;;;;32.99;63.27;100801.38;5057222;28;65871;-41
2023/08/11 03:51:57;;;;;;;4.90;3.67;;;;;;;33.01;63.41;100803.88;5057033;28;70356;-39
2023/08/11 03:54:28;;;;;;;4.47;3.40;;;;;;;33.01;63.29;100798.44;5051025;28;65467;-40
2023/08/11 03:57:17;;;;;;;7.20;3.50;;;;;;;32.99;63.33;100774.22;5057709;28;69716;-41
2023/08/11 03:59:48;;;;;;;6.20;3.17;;;;;;;32.98;63.16;100755.41;5051723;28;65381;-40
2023/08/11 04:02:19;;;;;;;4.10;3.42;;;;;;;33.02;63.12;100762.88;5059184;28;70069;-41
2023/08/11 04:04:50;;;;;;;3.70;3.03;;;;;;;33.03;63.01;100769.16;5053522;28;66685;-40
2023/08/11 04:07:21;;;;;;;7.07;3.40;;;;;;;33.14;63.09;100765.59;5044404;28;70139;-40
2023/08/11 04:09:52;;;;;;;5.20;4.00;;;;;;;33.13;62.85;100763.94;5053603;28;66499;-40
2023/08/11 04:12:26;;;;;;;8.30;3.00;;;;;;;33.18;63.07;100758.59;5041705;28;69892;-41
2023/08/11 04:14:57;;;;;;;6.88;3.20;;;;;;;33.18;62.97;100752.34;5057877;28;66626;-39
2023/08/11 04:17:28;;;;;;;4.70;3.40;;;;;;;33.17;63.09;100754.22;5055038;28;70373;-40
2023/08/11 04:20:00;;;;;;;4.78;3.20;;;;;;;33.21;62.85;100747.28;5040961;28;66102;-41
2023/08/11 04:22:31;;;;;;;10.35;3.58;;;;;;;32.89;62.97;100695.19;5047566;28;70084;-40
2023/08/11 04:25:10;;;;;;;5.28;2.90;;;;;;;33.26;62.94;100731.03;5051760;28;65687;-40
2023/08/11 04:27:46;;;;;;;4.93;3.33;;;;;;;33.13;62.51;100701.44;5045110;28;70065;-41
2023/08/11 04:30:18;;;;;;;4.47;3.00;;;;;;;33.27;62.93;100726.47;5055352;28;66174;-40
2023/08/11 04:32:52;;;;;;;6.18;2.83;;;;;;;33.15;62.61;100702.00;5057572;28;70358;-42
2023/08/11 04:35:25;;;;;;;7.10;3.05;;;;;;;33.31;62.84;100711.31;5046750;28;65758;-43
2023/08/11 04:37:56;;;;;;;4.45;2.92;;;;;;;33.31;62.72;100706.69;5047351;28;70416;-42
2023/08/11 04:40:30;;;;;;;6.03;2.63;;;;;;;33.34;62.60;100708.91;5051498;28;66688;-42
2023/08/11 04:43:01;;;;;;;6.13;3.23;;;;;;;33.22;62.84;100678.25;5053994;28;69588;-42
2023/08/11 04:45:37;;;;;;;4.75;2.95;;;;;;;33.37;62.72;100689.41;5055879;28;66470;-41
2023/08/11 04:48:09;;;;;;;3.95;2.83;;;;;;;33.06;62.23;100633.63;5054574;28;70900;-40
2023/08/11 04:50:50;;;;;;;3.35;2.80;;;;;;;33.38;62.46;100684.81;5057467;28;65528;-42
2023/08/11 04:53:22;;;;;;;3.83;2.70;;;;;;;33.41;62.52;100670.72;5054109;28;70035;-42
2023/08/11 04:55:52;;;;;;;4.93;2.83;;;;;;;33.36;62.74;100671.44;5045607;28;65590;-41
2023/08/11 04:58:23;;;;;;;8.55;2.97;;;;;;;33.42;62.50;100674.28;5056248;28;70274;-40
2023/08/11 05:00:54;;;;;;;3.13;2.78;;;;;;;33.43;62.53;100676.72;5050882;28;65595;-40
2023/08/11 05:03:25;;;;;;;3.13;2.80;;;;;;;33.43;62.65;100665.03;5058765;28;69135;-42
2023/08/11 05:05:56;;;;;;;3.80;2.90;;;;;;;33.46;62.47;100659.09;5058606;28;65836;-43
2023/08/11 05:08:27;;;;;;;2.83;2.63;;;;;;;33.48;62.34;100651.53;5058137;28;70688;-41
2023/08/11 05:10:58;;;;;;;5.05;2.85;;;;;;;33.43;62.36;100632.41;5058659;28;66530;-41
2023/08/11 05:13:29;;;;;;;5.97;3.10;;;;;;;33.50;62.55;100639.34;5057425;28;69767;-44
2023/08/11 05:16:00;;;;;;;5.60;2.42;;;;;;;33.53;62.26;100632.63;5057124;28;66179;-42
2023/08/11 05:18:31;;;;;;;3.17;2.50;;;;;;;33.15;61.92;100560.66;5059300;28;70124;-42
2023/08/11 05:21:15;;;;;;;3.97;3.08;;;;;;;33.57;62.14;100622.91;5055489;28;66143;-42
2023/08/11 05:23:47;;;;;;;3.60;2.78;;;;;;;33.59;61.86;100623.50;5053227;28;70155;-43
2023/08/11 05:26:18;;;;;;;2.72;2.22;;;;;;;33.59;61.56;100632.47;5048978;28;65933;-42
2023/08/11 05:28:48;;;;;;;3.35;2.83;;;;;;;33.62;61.69;100624.91;5050814;28;70321;-43
2023/08/11 05:31:20;;;;;;;5.20;2.30;;;;;;;33.64;61.75;100618.16;5051336;28;65392;-43
2023/08/11 05:33:52;;;;;;;4.32;2.40;;;;;;;33.65;61.90;100611.63;5051187;28;70227;-42
2023/08/11 05:36:22;;;;;;;9.93;2.25;;;;;;;33.67;61.68;100597.78;5054118;28;65313;-43
2023/08/11 05:38:53;;;;;;;3.53;3.00;;;;;;;33.61;61.64;100587.91;5058973;28;70022;-45
2023/08/11 05:41:24;;;;;;;3.60;2.53;;;;;;;33.71;61.77;100583.47;5056606;28;66883;-43
2023/08/11 05:43:55;;;;;;;3.08;2.53;;;;;;;33.61;61.72;100569.69;5061351;28;69301;-42
2023/08/11 05:46:26;;;;;;;2.30;1.90;;;;;;;33.75;61.28;100587.31;5055492;28;65925;-42
2023/08/11 05:48:57;;;;;;;2.92;2.38;;;;;;;33.76;61.67;100572.63;5052514;28;70441;-43
2023/08/11 05:51:28;;;;;;;2.97;2.53;;;;;;;33.76;61.49;100583.50;5063019;28;65569;-41
2023/08/11 05:53:59;;;;;;;2.83;2.40;;;;;;;33.83;61.06;100577.09;5063173;28;71554;-42
2023/08/11 05:56:30;;;;;;;2.83;2.63;;;;;;;33.81;61.56;100569.19;5058857;28;66501;-42
2023/08/11 05:59:00;;;;;;;5.07;2.30;;;;;;;33.89;61.52;100576.13;5055672;28;69712;-41
2023/08/11 06:01:31;;;;;;;3.10;2.28;;;;;;;33.92;61.16;100548.41;5060041;28;65990;-41
2023/08/11 06:04:03;;;;;;;2.50;2.30;;;;;;;33.95;61.25;100553.34;5055615;28;71521;-42
2023/08/11 06:06:34;;;;;;;4.30;2.35;;;;;;;33.99;61.08;100544.44;5054597;28;66471;-42
2023/08/11 06:09:05;;;;;;;2.63;1.97;;;;;;;33.96;61.00;100535.94;5054568;28;70099;-40
2023/08/11 06:11:36;;;;;;;3.88;2.60;;;;;;;34.03;61.12;100542.03;5074915;28;65485;-43
2023/08/11 06:14:07;;;;;;;4.57;2.40;;;;;;;34.07;60.60;100539.66;5059049;28;69218;-40
2023/08/11 06:16:37;;;;;;;2.78;2.20;;;;;;;34.09;60.98;100537.53;5053948;28;65478;-40
2023/08/11 06:19:08;;;;;;;3.27;1.93;;;;;;;34.15;60.92;100526.44;5053021;28;69631;-43
2023/08/11 06:21:39;;;;;;;2.25;1.80;;;;;;;34.17;60.92;100528.94;5057193;28;66875;-43
2023/08/11 06:24:09;;;;;;;2.22;2.00;;;;;;;34.21;60.83;100525.47;5051143;28;71386;-41
2023/08/11 06:26:40;;;;;;;6.20;2.17;;;;;;;34.22;60.84;100516.22;5057729;28;65268;-41
2023/08/11 06:29:11;;;;;;;3.97;2.77;;;;;;;34.26;60.23;100522.78;5053754;28;70438;-42
2023/08/11 06:31:42;;;;;;;3.10;2.15;;;;;;;34.31;60.24;100515.78;5045433;28;67692;-43
2023/08/11 06:34:17;;;;;;;2.97;2.20;;;;;;;34.32;60.13;100506.53;5058683;28;70000;-43
2023/08/11 06:36:48;;;;;;;3.28;2.20;;;;;;;34.34;60.47;100501.66;5059795;28;66074;-46
2023/08/11 06:39:19;;;;;;;3.30;2.33;;;;;;;34.40;60.24;100506.06;5052127;28;70682;-42
2023/08/11 06:41:49;;;;;;;3.83;2.53;;;;;;;34.38;59.96;100502.78;5051695;28;65712;-42
2023/08/11 06:44:40;;;;;;;4.32;2.25;;;;;;;34.48;59.84;100502.91;5057005;28;70618;-42
2023/08/11 06:47:11;;;;;;;4.13;2.20;;;;;;;34.43;60.18;100487.31;5058467;28;65786;-43
2023/08/11 06:49:41;;;;;;;3.83;2.50;;;;;;;34.53;59.67;100491.25;5062064;28;70428;-43
2023/08/11 06:52:12;;;;;;;9.27;2.87;;;;;;;34.44;59.93;100469.94;5054683;28;66221;-43
2023/08/11 06:54:43;;;;;;;2.53;1.90;;;;;;;34.56;59.65;100505.22;5058149;28;69629;-41
2023/08/11 06:57:13;;;;;;;3.33;2.45;;;;;;;34.58;59.86;100496.81;5052310;28;66237;-42
2023/08/11 06:59:44;;;;;;;3.03;2.73;;;;;;;34.61;59.81;100488.94;5046392;28;70558;-41
2023/08/11 07:02:15;;;;;;;4.15;2.70;;;;;;;34.65;59.75;100490.06;5062238;28;66068;-42
2023/08/11 07:04:46;;;;;;;5.15;2.92;;;;;;;34.67;59.25;100484.38;5046824;28;70310;-41
2023/08/11 07:07:17;;;;;;;3.70;3.40;;;;;;;34.70;59.11;100481.94;5053940;28;65770;-43
2023/08/11 07:09:47;;;;;;;2.80;2.58;;;;;;;34.77;59.03;100489.09;5054595;28;69666;-44
2023/08/11 07:12:18;;;;;;;3.23;2.93;;;;;;;34.74;59.40;100473.25;5056732;28;65532;-42
2023/08/11 07:14:50;;;;;;;5.87;3.20;;;;;;;34.61;59.35;100453.53;5059154;28;69400;-42
2023/08/11 07:17:23;;;;;;;3.22;2.92;;;;;;;34.73;58.89;100460.72;5057135;28;66330;-42
2023/08/11 07:19:53;;;;;;;3.60;3.10;;;;;;;34.82;59.04;100454.53;5055463;28;69850;-41
2023/08/11 07:22:24;;;;;;;4.07;3.58;;;;;;;34.85;59.02;100455.94;5059446;28;67282;-42
2023/08/11 07:24:55;;;;;;;3.43;3.13;;;;;;;34.95;58.59;100461.50;5055840;28;69407;-41
2023/08/11 07:27:26;;;;;;;4.90;3.58;;;;;;;34.96;58.32;100454.13;5058899;28;67090;-42
2023/08/11 07:29:56;;;;;;;3.67;3.37;;;;;;;34.93;58.25;100455.47;5052352;28;70068;-41
2023/08/11 07:32:28;;;;;;;6.55;3.55;;;;;;;34.86;58.73;100443.97;5051495;28;66135;-43
2023/08/11 07:34:59;;;;;;;4.90;3.93;;;;;;;35.01;58.71;100460.44;5054534;28;70488;-43
2023/08/11 07:37:29;;;;;;;5.28;3.72;;;;;;;35.09;58.56;100453.75;5049609;28;66111;-43
2023/08/11 07:40:00;;;;;;;4.20;3.87;;;;;;;35.09;58.01;100449.09;5051331;28;69884;-43
2023/08/11 07:42:30;;;;;;;3.60;3.30;;;;;;;35.01;58.43;100430.47;5050942;28;66344;-46
2023/08/11 07:45:01;;;;;;;3.97;3.67;;;;;;;35.13;57.86;100444.81;5054164;28;70131;-42
2023/08/11 07:47:32;;;;;;;5.03;3.60;;;;;;;35.17;58.36;100436.09;5059006;28;65689;-45
2023/08/11 07:50:03;;;;;;;4.65;3.50;;;;;;;35.10;58.08;100426.25;5056424;28;70566;-43
2023/08/11 07:52:33;;;;;;;3.60;3.40;;;;;;;35.22;57.63;100433.41;5055770;28;65755;-43
2023/08/11 07:55:04;;;;;;;5.00;3.53;;;;;;;35.22;57.50;100425.25;5052600;28;69195;-42
2023/08/11 07:57:36;;;;;;;4.13;3.83;;;;;;;35.25;58.13;100424.72;5058515;28;65676;-44
2023/08/11 08:00:13;;;;;;;7.63;4.00;;;;;;;35.29;57.48;100436.72;5054131;28;69283;-42
2023/08/11 08:02:45;;;;;;;3.92;3.60;;;;;;;35.29;57.62;100423.91;5051606;28;66604;-45
2023/08/11 08:05:17;;;;;;;4.30;3.90;;;;;;;35.26;58.14;100415.44;5051615;28;70397;-42
2023/08/11 08:07:49;;;;;;;4.35;4.07;;;;;;;35.34;57.70;100428.59;5050988;28;65428;-44
2023/08/11 08:10:20;;;;;;;4.20;3.95;;;;;;;35.35;57.28;100424.75;5058384;28;70128;-44
2023/08/11 08:12:51;;;;;;;4.90;4.50;;;;;;;35.36;57.84;100426.44;5048478;28;66099;-42
2023/08/11 08:15:24;;;;;;;4.93;4.53;;;;;;;35.34;57.46;100428.59;5050416;28;69772;-42
2023/08/11 08:17:55;;;;;;;5.28;4.95;;;;;;;35.31;57.47;100418.22;5049743;28;65692;-43
2023/08/11 08:20:26;;;;;;;9.18;4.90;;;;;;;35.39;57.57;100414.19;5054789;28;71120;-43
2023/08/11 08:22:57;;;;;;;6.65;5.45;;;;;;;35.40;57.66;100416.63;5045128;28;65911;-43
2023/08/11 08:25:27;;;;;;;5.60;5.20;;;;;;;35.43;56.86;100415.28;5048798;28;69912;-42
2023/08/11 08:27:58;;;;;;;10.33;6.10;;;;;;;35.44;56.89;100406.84;5047418;28;66614;-42
2023/08/11 08:30:35;;;;;;;7.93;5.00;;;;;;;35.39;57.37;100397.81;5055946;28;70570;-42
2023/08/11 08:33:07;;;;;;;7.10;6.10;;;;;;;35.45;57.32;100403.03;5054523;28;66394;-43
2023/08/11 08:35:38;;;;;;;6.88;6.30;;;;;;;35.40;56.77;100389.34;5050338;28;69526;-43
2023/08/11 08:38:09;;;;;;;6.23;5.83;;;;;;;35.47;56.72;100411.78;5059773;28;66356;-44
2023/08/11 08:40:41;;;;;;;5.72;5.32;;;;;;;35.49;56.70;100409.59;5056126;28;69898;-43
2023/08/11 08:43:12;;;;;;;6.88;6.38;;;;;;;35.51;57.15;100407.41;5057252;28;66081;-41
2023/08/11 08:45:44;;;;;;;6.75;6.28;;;;;;;34.96;56.95;100320.59;5050345;28;69888;-42
2023/08/11 08:48:26;;;;;;;5.95;5.45;;;;;;;34.94;56.25;100318.16;5053858;28;65437;-43
2023/08/11 08:50:57;;;;;;;6.53;6.03;;;;;;;35.52;57.16;100409.09;5048059;28;70253;-43
2023/08/11 08:53:28;;;;;;;7.73;6.87;;;;;;;35.54;56.71;100411.53;5040178;28;66661;-43
2023/08/11 08:56:04;;;;;;;7.72;6.85;;;;;;;35.52;56.76;100398.19;5040317;28;69975;-43
2023/08/11 08:58:35;;;;;;;7.30;6.70;;;;;;;35.55;56.49;100403.09;5057222;28;66593;-43
2023/08/11 09:01:07;;;;;;;7.03;6.53;;;;;;;35.55;57.10;100411.28;5058758;28;70247;-44
2023/08/11 09:03:39;;;;;;;6.55;6.05;;;;;;;35.56;56.51;100404.75;5055062;28;65171;-43
2023/08/11 09:06:12;;;;;;;7.25;6.75;;;;;;;35.00;56.52;100311.63;5053009;28;70264;-42
2023/08/11 09:08:42;;;;;;;6.95;6.35;;;;;;;35.56;57.09;100415.69;5059710;28;65702;-42
2023/08/11 09:11:13;;;;;;;7.43;6.80;;;;;;;35.55;56.54;100408.56;5057400;28;69090;-42
2023/08/11 09:13:46;;;;;;;6.63;6.13;;;;;;;35.49;56.16;100404.13;5059080;28;66293;-42
2023/08/11 09:16:22;;;;;;;6.65;6.05;;;;;;;35.57;56.87;100420.03;5055196;28;70328;-41
2023/08/11 09:18:53;;;;;;;6.25;5.85;;;;;;;35.48;56.19;100402.50;5056655;28;65205;-42
2023/08/11 09:21:24;;;;;;;6.27;5.77;;;;;;;35.57;56.56;100413.75;5057630;28;69459;-42
2023/08/11 09:23:57;;;;;;;8.43;5.50;;;;;;;35.51;56.71;100401.16;5056160;28;66527;-44
2023/08/11 09:26:28;;;;;;;5.60;5.30;;;;;;;35.56;56.53;100415.69;5057939;28;69451;-43
2023/08/11 09:28:59;;;;;;;6.28;5.88;;;;;;;35.56;56.89;100421.13;5060692;28;66231;-44
2023/08/11 09:31:30;;;;;;;7.13;5.80;;;;;;;35.58;56.17;100423.59;5057841;28;69368;-42
2023/08/11 09:34:14;;;;;;;7.55;6.18;;;;;;;35.44;55.68;100395.94;5058876;28;66365;-43
2023/08/11 09:36:48;;;;;;;6.45;6.05;;;;;;;35.59;56.39;100403.41;5055994;28;69423;-44
2023/08/11 09:39:20;;;;;;;6.28;5.78;;;;;;;35.60;56.44;100406.97;5052837;28;66699;-43
2023/08/11 09:41:51;;;;;;;6.10;5.70;;;;;;;35.61;55.81;100416.78;5055723;28;70944;-44
2023/08/11 09:44:22;;;;;;;5.97;5.50;;;;;;;35.46;56.08;100399.19;5055463;28;65440;-44
2023/08/11 09:46:53;;;;;;;6.38;5.78;;;;;;;35.58;55.79;100418.97;5055462;28;70169;-43
2023/08/11 09:49:23;;;;;;;6.53;5.30;;;;;;;35.43;55.91;100397.00;5059808;28;67295;-42
2023/08/11 09:52:02;;;;;;;5.77;5.33;;;;;;;35.08;55.88;100338.44;5057192;28;70419;-43
2023/08/11 09:54:33;;;;;;;6.00;5.60;;;;;;;35.22;55.87;100354.34;5056879;28;67085;-43
2023/08/11 09:57:06;;;;;;;;;;;;;;;35.32;56.05;100414.38;5047467;28;69751;-43
2023/08/11 09:59:36;;;;;;;;;;;;;;;35.28;56.73;100414.09;5059309;28;66613;-43
2023/08/11 10:02:15;;;;;;;6.15;4.93;;;;;;;35.12;55.63;100345.00;5059526;28;70274;-42
2023/08/11 10:04:56;;;;;;;6.18;5.78;;;;;;;35.55;55.91;100414.00;5055402;28;65872;-43
2023/08/11 10:07:34;;;;;;;;;;;;;;;35.28;56.53;100400.47;5053185;28;69345;-42
2023/08/11 10:10:14;;;;;;;5.97;5.57;;;;;;;34.97;55.71;100316.81;5052430;28;66049;-42
2023/08/11 10:13:07;;;;;;;6.35;5.07;;;;;;;35.46;55.73;100415.56;5057753;28;69685;-43
2023/08/11 10:15:39;;;;;;;6.72;4.80;;;;;;;35.48;55.99;100405.22;5056998;28;66946;-43
2023/08/11 10:18:11;;;;;;;5.75;5.30;;;;;;;35.50;56.33;100413.97;5058414;28;69699;-42
2023/08/11 10:20:42;;;;;;;6.40;5.80;;;;;;;35.52;56.10;100411.81;5056473;28;66607;-43
2023/08/11 10:23:14;;;;;;;;;;;;;;;35.23;56.89;100424.13;5062335;28;70782;-43
2023/08/11 10:25:46;;;;;;;6.65;6.05;;;;;;;35.47;56.47;100421.88;5062375;28;65544;-44
2023/08/11 10:28:18;;;;;;;6.65;6.05;;;;;;;35.49;56.75;100417.78;5061548;28;70422;-43
2023/08/11 10:30:58;;;;;;;6.57;6.07;;;;;;;35.17;56.55;100378.84;5062118;28;65796;-41
2023/08/11 10:33:31;;;;;;;5.72;5.35;;;;;;;35.03;56.66;100356.63;5049020;28;69960;-43
2023/08/11 10:36:03;;;;;;;6.50;6.00;;;;;;;35.47;56.13;100432.78;5061348;28;66129;-43
2023/08/11 10:38:34;;;;;;;10.82;5.88;;;;;;;35.45;56.79;100438.47;5061033;28;69754;-43
2023/08/11 10:41:10;;;;;;;6.40;6.00;;;;;;;35.39;56.16;100425.91;5061898;28;66221;-43
2023/08/11 10:43:48;;;;;;;6.10;5.60;;;;;;;34.90;56.90;100349.72;5061621;28;70413;-43
2023/08/11 10:46:26;;;;;;;9.50;6.13;;;;;;;34.87;58.10;100423.81;5049583;28;66814;-42
2023/08/11 10:49:22;;;;;;;6.53;5.68;;;;;;;34.57;58.79;100422.41;5057264;28;70676;-42
2023/08/11 10:51:53;;;;;;;7.30;6.40;;;;;;;34.70;59.52;100445.72;5060082;28;65377;-41
2023/08/11 10:54:26;;;;;;;7.40;6.75;;;;;;;34.40;59.59;100406.13;5041434;28;69727;-42
2023/08/11 10:57:03;;;;;;;7.82;7.13;;;;;;;34.04;59.76;100350.44;5049176;28;67131;-40
2023/08/11 10:59:34;;;;;;;11.27;7.50;;;;;;;34.54;60.42;100431.06;5055568;28;70593;-42
2023/08/11 11:02:06;;;;;;;8.60;7.33;;;;;;;34.53;60.60;100440.34;5054809;28;66162;-41
2023/08/11 11:04:37;;;;;;;11.30;7.28;;;;;;;34.54;60.48;100450.13;5058029;28;70168;-41
2023/08/11 11:07:08;;;;;;;9.60;7.07;;;;;;;34.48;61.40;100445.72;5060678;28;66775;-41
2023/08/11 11:09:39;;;;;;;10.53;7.37;;;;;;;34.38;60.69;100429.25;5058475;28;69607;-43
2023/08/11 11:12:10;;;;;;;9.77;8.45;;;;;;;34.49;60.55;100460.97;5060678;28;66488;-43
2023/08/11 11:14:42;;;;;;;8.23;7.35;;;;;;;34.20;60.74;100414.91;5058077;28;69929;-42
2023/08/11 11:17:14;;;;;;;8.13;7.43;;;;;;;34.42;61.24;100463.91;5059395;28;66208;-40
2023/08/11 11:19:45;;;;;;;13.48;7.95;;;;;;;34.36;60.73;100456.75;5057940;28;70707;-42
2023/08/11 11:22:17;;;;;;;9.57;8.55;;;;;;;34.07;61.29;100409.03;5060761;28;66345;-42
2023/08/11 11:24:49;;;;;;;11.52;8.18;;;;;;;34.26;61.54;100457.44;5057199;28;70424;-42
2023/08/11 11:27:22;;;;;;;9.95;8.15;;;;;;;34.32;61.74;100471.13;5058691;28;65620;-41
2023/08/11 11:29:59;;;;;;;9.00;8.27;;;;;;;34.30;61.96;100476.00;5059256;28;70000;-42
2023/08/11 11:32:30;;;;;;;9.63;8.50;;;;;;;34.24;62.64;100470.50;5053842;28;64862;-42
2023/08/11 11:35:03;;;;;;;9.60;8.63;;;;;;;34.24;62.95;100478.66;5055740;28;70430;-43
2023/08/11 11:37:35;;;;;;;10.10;8.20;;;;;;;34.22;62.48;100483.53;5058039;28;66362;-41
2023/08/11 11:40:06;;;;;;;;;;;;;;;33.98;63.38;100482.09;5055976;28;69477;-41
2023/08/11 11:42:37;;;;;;;9.38;8.20;;;;;;;34.14;62.82;100485.88;5060763;28;66401;-43
2023/08/11 11:45:10;;;;;;;8.52;7.88;;;;;;;34.17;63.00;100486.19;5052618;28;70142;-43
2023/08/11 11:47:41;;;;;;;11.82;8.02;;;;;;;34.11;63.22;100487.22;5056274;28;65700;-41